sensor_id;sensor_type;location;lat;lon;timestamp;pressure;altitude;pressure_sealevel;temperature
69597;BMP180;70000;51.176;-115.568;2024-03-23T00:54:08;86229.20;;;-1.94
69597;BMP180;70000;51.176;-115.568;2024-03-23T00:56:37;86223.60;;;-2.00
69597;BMP180;70000;51.176;-115.568;2024-03-23T00:59:05;86219.00;;;-2.00
69597;BMP180;70000;51.176;-115.568;2024-03-23T01:01:34;86226.40;;;-2.00
69597;BMP180;70000;51.176;-115.568;2024-03-23T01:04:04;86226.40;;;-1.90
69597;BMP180;70000;51.176;-115.568;2024-03-23T01:06:32;86226.00;;;-1.90
69597;BMP180;70000;51.176;-115.568;2024-03-23T01:09:01;86224.40;;;-1.90
69597;BMP180;70000;51.176;-115.568;2024-03-23T01:11:30;86220.80;;;-1.86
69597;BMP180;70000;51.176;-115.568;2024-03-23T01:13:59;86227.60;;;-1.80
69597;BMP180;70000;51.176;-115.568;2024-03-23T01:16:30;86225.60;;;-1.80
69597;BMP180;70000;51.176;-115.568;2024-03-23T01:18:59;86224.60;;;-1.80
69597;BMP180;70000;51.176;-115.568;2024-03-23T01:21:48;86235.00;;;-1.88
69597;BMP180;70000;51.176;-115.568;2024-03-23T01:24:18;86235.40;;;-1.90
69597;BMP180;70000;51.176;-115.568;2024-03-23T01:26:47;86224.20;;;-1.90
69597;BMP180;70000;51.176;-115.568;2024-03-23T01:29:16;86235.80;;;-1.98
69597;BMP180;70000;51.176;-115.568;2024-03-23T01:31:44;86240.00;;;-2.02
69597;BMP180;70000;51.176;-115.568;2024-03-23T01:34:16;86237.20;;;-2.10
69597;BMP180;70000;51.176;-115.568;2024-03-23T01:36:45;86240.20;;;-2.20
69597;BMP180;70000;51.176;-115.568;2024-03-23T01:39:14;86244.40;;;-2.30
69597;BMP180;70000;51.176;-115.568;2024-03-23T01:41:50;86257.20;;;-2.40
69597;BMP180;70000;51.176;-115.568;2024-03-23T01:44:19;86246.80;;;-2.42
69597;BMP180;70000;51.176;-115.568;2024-03-23T01:46:49;86250.80;;;-2.50
69597;BMP180;70000;51.176;-115.568;2024-03-23T01:49:19;86251.20;;;-2.50
69597;BMP180;70000;51.176;-115.568;2024-03-23T01:51:52;86243.20;;;-2.50
69597;BMP180;70000;51.176;-115.568;2024-03-23T01:54:25;86242.20;;;-2.60
69597;BMP180;70000;51.176;-115.568;2024-03-23T01:56:55;86237.60;;;-2.64
69597;BMP180;70000;51.176;-115.568;2024-03-23T01:59:25;86237.80;;;-2.70
69597;BMP180;70000;51.176;-115.568;2024-03-23T02:01:54;86241.20;;;-2.80
69597;BMP180;70000;51.176;-115.568;2024-03-23T02:04:24;86242.60;;;-2.90
69597;BMP180;70000;51.176;-115.568;2024-03-23T02:10:10;86249.60;;;-2.90
69597;BMP180;70000;51.176;-115.568;2024-03-23T02:12:42;86246.60;;;-2.94
69597;BMP180;70000;51.176;-115.568;2024-03-23T02:18:23;86251.00;;;-3.18
69597;BMP180;70000;51.176;-115.568;2024-03-23T02:21:35;86247.80;;;-3.28
69597;BMP180;70000;51.176;-115.568;2024-03-23T02:24:05;86250.80;;;-3.30
69597;BMP180;70000;51.176;-115.568;2024-03-23T02:26:38;86244.60;;;-3.40
69597;BMP180;70000;51.176;-115.568;2024-03-23T02:29:06;86248.60;;;-3.40
69597;BMP180;70000;51.176;-115.568;2024-03-23T02:31:39;86263.20;;;-3.50
69597;BMP180;70000;51.176;-115.568;2024-03-23T02:34:07;86254.20;;;-3.50
69597;BMP180;70000;51.176;-115.568;2024-03-23T02:36:36;86241.80;;;-3.50
69597;BMP180;70000;51.176;-115.568;2024-03-23T02:39:04;86254.80;;;-3.50
69597;BMP180;70000;51.176;-115.568;2024-03-23T02:41:33;86248.60;;;-3.50
69597;BMP180;70000;51.176;-115.568;2024-03-23T02:44:01;86254.40;;;-3.40
69597;BMP180;70000;51.176;-115.568;2024-03-23T02:46:32;86251.80;;;-3.40
69597;BMP180;70000;51.176;-115.568;2024-03-23T02:49:01;86252.80;;;-3.30
69597;BMP180;70000;51.176;-115.568;2024-03-23T02:51:30;86257.00;;;-3.20
69597;BMP180;70000;51.176;-115.568;2024-03-23T02:53:59;86255.80;;;-3.20
69597;BMP180;70000;51.176;-115.568;2024-03-23T02:56:36;86264.40;;;-3.10
69597;BMP180;70000;51.176;-115.568;2024-03-23T02:59:04;86266.60;;;-3.00
69597;BMP180;70000;51.176;-115.568;2024-03-23T03:01:32;86265.80;;;-3.00
69597;BMP180;70000;51.176;-115.568;2024-03-23T03:04:01;86265.40;;;-2.90
69597;BMP180;70000;51.176;-115.568;2024-03-23T03:06:31;86261.00;;;-2.80
69597;BMP180;70000;51.176;-115.568;2024-03-23T03:11:30;86259.80;;;-2.70
69597;BMP180;70000;51.176;-115.568;2024-03-23T03:13:58;86261.00;;;-2.70
69597;BMP180;70000;51.176;-115.568;2024-03-23T03:16:28;86264.40;;;-2.70
69597;BMP180;70000;51.176;-115.568;2024-03-23T03:18:56;86257.40;;;-2.70
69597;BMP180;70000;51.176;-115.568;2024-03-23T03:21:27;86253.60;;;-2.80
69597;BMP180;70000;51.176;-115.568;2024-03-23T03:23:56;86258.60;;;-2.80
69597;BMP180;70000;51.176;-115.568;2024-03-23T03:26:24;86254.80;;;-2.80
69597;BMP180;70000;51.176;-115.568;2024-03-23T03:28:57;86250.40;;;-2.90
69597;BMP180;70000;51.176;-115.568;2024-03-23T03:31:25;86253.80;;;-2.90
69597;BMP180;70000;51.176;-115.568;2024-03-23T03:33:56;86250.80;;;-2.90
69597;BMP180;70000;51.176;-115.568;2024-03-23T03:36:24;86259.20;;;-3.00
69597;BMP180;70000;51.176;-115.568;2024-03-23T03:38:53;86252.00;;;-3.00
69597;BMP180;70000;51.176;-115.568;2024-03-23T03:41:21;86257.60;;;-3.10
69597;BMP180;70000;51.176;-115.568;2024-03-23T03:43:50;86242.60;;;-3.10
69597;BMP180;70000;51.176;-115.568;2024-03-23T03:46:18;86245.20;;;-3.12
69597;BMP180;70000;51.176;-115.568;2024-03-23T03:48:47;86242.60;;;-3.20
69597;BMP180;70000;51.176;-115.568;2024-03-23T03:51:16;86239.40;;;-3.30
69597;BMP180;70000;51.176;-115.568;2024-03-23T03:53:44;86241.80;;;-3.30
69597;BMP180;70000;51.176;-115.568;2024-03-23T03:56:13;86237.00;;;-3.32
69597;BMP180;70000;51.176;-115.568;2024-03-23T03:58:42;86232.40;;;-3.40
69597;BMP180;70000;51.176;-115.568;2024-03-23T04:01:10;86240.40;;;-3.40
69597;BMP180;70000;51.176;-115.568;2024-03-23T04:03:39;86232.80;;;-3.48
69597;BMP180;70000;51.176;-115.568;2024-03-23T04:06:19;86229.60;;;-3.50
69597;BMP180;70000;51.176;-115.568;2024-03-23T04:08:49;86236.40;;;-3.54
69597;BMP180;70000;51.176;-115.568;2024-03-23T04:11:21;86234.80;;;-3.60
69597;BMP180;70000;51.176;-115.568;2024-03-23T04:13:54;86229.20;;;-3.68
69597;BMP180;70000;51.176;-115.568;2024-03-23T04:16:36;86229.40;;;-3.70
69597;BMP180;70000;51.176;-115.568;2024-03-23T04:19:06;86231.00;;;-3.70
69597;BMP180;70000;51.176;-115.568;2024-03-23T04:21:43;86233.20;;;-3.80
69597;BMP180;70000;51.176;-115.568;2024-03-23T04:24:13;86227.40;;;-3.80
69597;BMP180;70000;51.176;-115.568;2024-03-23T04:26:44;86239.00;;;-3.80
69597;BMP180;70000;51.176;-115.568;2024-03-23T04:29:15;86234.00;;;-3.86
69597;BMP180;70000;51.176;-115.568;2024-03-23T04:31:45;86236.80;;;-3.90
69597;BMP180;70000;51.176;-115.568;2024-03-23T04:34:17;86242.00;;;-4.00
69597;BMP180;70000;51.176;-115.568;2024-03-23T04:36:47;86241.00;;;-4.00
69597;BMP180;70000;51.176;-115.568;2024-03-23T04:39:17;86237.80;;;-4.10
69597;BMP180;70000;51.176;-115.568;2024-03-23T04:41:48;86230.40;;;-4.14
69597;BMP180;70000;51.176;-115.568;2024-03-23T04:44:24;86241.20;;;-4.20
69597;BMP180;70000;51.176;-115.568;2024-03-23T04:46:54;86236.40;;;-4.20
69597;BMP180;70000;51.176;-115.568;2024-03-23T04:49:23;86234.40;;;-4.30
69597;BMP180;70000;51.176;-115.568;2024-03-23T04:51:51;86233.60;;;-4.30
69597;BMP180;70000;51.176;-115.568;2024-03-23T04:54:19;86230.40;;;-4.40
69597;BMP180;70000;51.176;-115.568;2024-03-23T04:56:48;86221.40;;;-4.44
69597;BMP180;70000;51.176;-115.568;2024-03-23T04:59:16;86220.20;;;-4.50
69597;BMP180;70000;51.176;-115.568;2024-03-23T05:01:45;86221.00;;;-4.50
69597;BMP180;70000;51.176;-115.568;2024-03-23T05:04:13;86212.60;;;-4.60
69597;BMP180;70000;51.176;-115.568;2024-03-23T05:06:42;86211.80;;;-4.60
69597;BMP180;70000;51.176;-115.568;2024-03-23T05:09:11;86219.80;;;-4.64
69597;BMP180;70000;51.176;-115.568;2024-03-23T05:11:39;86208.20;;;-4.70
69597;BMP180;70000;51.176;-115.568;2024-03-23T05:14:08;86205.80;;;-4.70
69597;BMP180;70000;51.176;-115.568;2024-03-23T05:16:36;86203.20;;;-4.80
69597;BMP180;70000;51.176;-115.568;2024-03-23T05:19:05;86205.80;;;-4.80
69597;BMP180;70000;51.176;-115.568;2024-03-23T05:21:34;86206.60;;;-4.90
69597;BMP180;70000;51.176;-115.568;2024-03-23T05:24:02;86205.20;;;-4.90
69597;BMP180;70000;51.176;-115.568;2024-03-23T05:26:34;86199.00;;;-4.90
69597;BMP180;70000;51.176;-115.568;2024-03-23T05:29:05;86199.00;;;-5.00
69597;BMP180;70000;51.176;-115.568;2024-03-23T05:31:38;86187.80;;;-5.00
69597;BMP180;70000;51.176;-115.568;2024-03-23T05:34:09;86191.60;;;-5.00
69597;BMP180;70000;51.176;-115.568;2024-03-23T05:36:37;86192.40;;;-4.96
69597;BMP180;70000;51.176;-115.568;2024-03-23T05:39:06;86189.00;;;-5.00
69597;BMP180;70000;51.176;-115.568;2024-03-23T05:41:34;86181.00;;;-5.00
69597;BMP180;70000;51.176;-115.568;2024-03-23T05:44:04;86185.00;;;-5.00
69597;BMP180;70000;51.176;-115.568;2024-03-23T05:46:32;86177.40;;;-5.00
69597;BMP180;70000;51.176;-115.568;2024-03-23T05:49:02;86185.20;;;-4.94
69597;BMP180;70000;51.176;-115.568;2024-03-23T05:51:30;86179.20;;;-4.90
69597;BMP180;70000;51.176;-115.568;2024-03-23T05:53:59;86181.80;;;-4.90
69597;BMP180;70000;51.176;-115.568;2024-03-23T05:56:29;86179.60;;;-4.90
69597;BMP180;70000;51.176;-115.568;2024-03-23T05:58:57;86173.60;;;-4.90
69597;BMP180;70000;51.176;-115.568;2024-03-23T06:01:26;86175.20;;;-4.90
69597;BMP180;70000;51.176;-115.568;2024-03-23T06:03:56;86172.40;;;-4.90
69597;BMP180;70000;51.176;-115.568;2024-03-23T06:06:24;86175.80;;;-4.90
69597;BMP180;70000;51.176;-115.568;2024-03-23T06:08:53;86168.00;;;-4.90
69597;BMP180;70000;51.176;-115.568;2024-03-23T06:11:22;86166.80;;;-4.90
69597;BMP180;70000;51.176;-115.568;2024-03-23T06:13:50;86163.20;;;-4.90
69597;BMP180;70000;51.176;-115.568;2024-03-23T06:16:19;86160.00;;;-4.90
69597;BMP180;70000;51.176;-115.568;2024-03-23T06:18:51;86163.00;;;-4.90
69597;BMP180;70000;51.176;-115.568;2024-03-23T06:21:23;86159.00;;;-4.90
69597;BMP180;70000;51.176;-115.568;2024-03-23T06:23:54;86159.80;;;-5.00
69597;BMP180;70000;51.176;-115.568;2024-03-23T06:26:26;86156.80;;;-4.94
69597;BMP180;70000;51.176;-115.568;2024-03-23T06:28:54;86164.60;;;-4.90
69597;BMP180;70000;51.176;-115.568;2024-03-23T06:31:23;86151.40;;;-4.90
69597;BMP180;70000;51.176;-115.568;2024-03-23T06:33:52;86151.80;;;-4.92
69597;BMP180;70000;51.176;-115.568;2024-03-23T06:36:20;86146.00;;;-4.90
69597;BMP180;70000;51.176;-115.568;2024-03-23T06:38:51;86152.00;;;-4.90
69597;BMP180;70000;51.176;-115.568;2024-03-23T06:41:20;86148.40;;;-4.90
69597;BMP180;70000;51.176;-115.568;2024-03-23T06:43:48;86147.60;;;-4.90
69597;BMP180;70000;51.176;-115.568;2024-03-23T06:46:19;86143.60;;;-4.98
69597;BMP180;70000;51.176;-115.568;2024-03-23T06:48:50;86144.80;;;-5.00
69597;BMP180;70000;51.176;-115.568;2024-03-23T06:51:18;86146.80;;;-5.00
69597;BMP180;70000;51.176;-115.568;2024-03-23T06:53:47;86151.00;;;-5.00
69597;BMP180;70000;51.176;-115.568;2024-03-23T06:56:17;86147.20;;;-5.00
69597;BMP180;70000;51.176;-115.568;2024-03-23T06:58:46;86147.00;;;-5.00
69597;BMP180;70000;51.176;-115.568;2024-03-23T07:01:14;86147.40;;;-5.00
69597;BMP180;70000;51.176;-115.568;2024-03-23T07:03:42;86141.80;;;-5.02
69597;BMP180;70000;51.176;-115.568;2024-03-23T07:06:11;86141.20;;;-5.00
69597;BMP180;70000;51.176;-115.568;2024-03-23T07:08:39;86136.40;;;-5.00
69597;BMP180;70000;51.176;-115.568;2024-03-23T07:11:08;86133.00;;;-5.00
69597;BMP180;70000;51.176;-115.568;2024-03-23T07:13:37;86134.00;;;-4.96
69597;BMP180;70000;51.176;-115.568;2024-03-23T07:16:05;86126.60;;;-5.00
69597;BMP180;70000;51.176;-115.568;2024-03-23T07:18:34;86124.60;;;-4.98
69597;BMP180;70000;51.176;-115.568;2024-03-23T07:21:02;86122.00;;;-4.92
69597;BMP180;70000;51.176;-115.568;2024-03-23T07:23:31;86123.00;;;-4.90
69597;BMP180;70000;51.176;-115.568;2024-03-23T07:26:06;86120.20;;;-4.90
69597;BMP180;70000;51.176;-115.568;2024-03-23T07:28:36;86118.20;;;-4.90
69597;BMP180;70000;51.176;-115.568;2024-03-23T07:31:10;86109.20;;;-4.90
69597;BMP180;70000;51.176;-115.568;2024-03-23T07:33:45;86108.60;;;-4.90
69597;BMP180;70000;51.176;-115.568;2024-03-23T07:36:13;86105.20;;;-4.92
69597;BMP180;70000;51.176;-115.568;2024-03-23T07:38:43;86102.60;;;-5.00
69597;BMP180;70000;51.176;-115.568;2024-03-23T07:41:25;86097.40;;;-5.02
69597;BMP180;70000;51.176;-115.568;2024-03-23T07:43:55;86098.20;;;-5.10
69597;BMP180;70000;51.176;-115.568;2024-03-23T07:46:23;86100.60;;;-5.10
69597;BMP180;70000;51.176;-115.568;2024-03-23T07:48:53;86100.20;;;-5.10
69597;BMP180;70000;51.176;-115.568;2024-03-23T07:51:23;86097.40;;;-5.12
69597;BMP180;70000;51.176;-115.568;2024-03-23T07:53:51;86094.60;;;-5.20
69597;BMP180;70000;51.176;-115.568;2024-03-23T07:56:21;86090.80;;;-5.20
69597;BMP180;70000;51.176;-115.568;2024-03-23T07:58:51;86085.80;;;-5.20
69597;BMP180;70000;51.176;-115.568;2024-03-23T08:01:20;86078.40;;;-5.28
69597;BMP180;70000;51.176;-115.568;2024-03-23T08:03:50;86080.60;;;-5.30
69597;BMP180;70000;51.176;-115.568;2024-03-23T08:06:22;86076.20;;;-5.30
69597;BMP180;70000;51.176;-115.568;2024-03-23T08:08:55;86072.00;;;-5.30
69597;BMP180;70000;51.176;-115.568;2024-03-23T08:11:32;86068.40;;;-5.40
69597;BMP180;70000;51.176;-115.568;2024-03-23T08:14:02;86067.60;;;-5.40
69597;BMP180;70000;51.176;-115.568;2024-03-23T08:16:32;86066.80;;;-5.40
69597;BMP180;70000;51.176;-115.568;2024-03-23T08:19:03;86056.20;;;-5.50
69597;BMP180;70000;51.176;-115.568;2024-03-23T08:21:32;86060.00;;;-5.50
69597;BMP180;70000;51.176;-115.568;2024-03-23T08:24:00;86057.20;;;-5.60
69597;BMP180;70000;51.176;-115.568;2024-03-23T08:26:29;86057.20;;;-5.60
69597;BMP180;70000;51.176;-115.568;2024-03-23T08:28:58;86053.00;;;-5.62
69597;BMP180;70000;51.176;-115.568;2024-03-23T08:31:26;86044.80;;;-5.70
69597;BMP180;70000;51.176;-115.568;2024-03-23T08:33:56;86046.40;;;-5.70
69597;BMP180;70000;51.176;-115.568;2024-03-23T08:36:24;86037.20;;;-5.80
69597;BMP180;70000;51.176;-115.568;2024-03-23T08:38:52;86036.80;;;-5.80
69597;BMP180;70000;51.176;-115.568;2024-03-23T08:41:22;86034.60;;;-5.80
69597;BMP180;70000;51.176;-115.568;2024-03-23T08:43:52;86033.40;;;-5.76
69597;BMP180;70000;51.176;-115.568;2024-03-23T08:46:21;86026.60;;;-5.74
69597;BMP180;70000;51.176;-115.568;2024-03-23T08:53:23;86021.60;;;-5.78
69597;BMP180;70000;51.176;-115.568;2024-03-23T08:55:56;86018.40;;;-5.80
69597;BMP180;70000;51.176;-115.568;2024-03-23T08:58:29;86011.20;;;-5.80
69597;BMP180;70000;51.176;-115.568;2024-03-23T09:03:37;86005.80;;;-5.90
69597;BMP180;70000;51.176;-115.568;2024-03-23T09:06:15;86005.20;;;-5.90
69597;BMP180;70000;51.176;-115.568;2024-03-23T09:08:43;86003.20;;;-5.94
69597;BMP180;70000;51.176;-115.568;2024-03-23T09:11:32;86003.40;;;-6.00
69597;BMP180;70000;51.176;-115.568;2024-03-23T09:14:09;86000.80;;;-6.00
69597;BMP180;70000;51.176;-115.568;2024-03-23T09:16:41;85996.40;;;-6.10
69597;BMP180;70000;51.176;-115.568;2024-03-23T09:19:15;85991.80;;;-6.18
69597;BMP180;70000;51.176;-115.568;2024-03-23T09:21:43;85989.60;;;-6.20
69597;BMP180;70000;51.176;-115.568;2024-03-23T09:24:12;85990.40;;;-6.20
69597;BMP180;70000;51.176;-115.568;2024-03-23T09:26:40;85993.00;;;-6.28
69597;BMP180;70000;51.176;-115.568;2024-03-23T09:29:09;85996.40;;;-6.30
69597;BMP180;70000;51.176;-115.568;2024-03-23T09:31:37;85993.20;;;-6.38
69597;BMP180;70000;51.176;-115.568;2024-03-23T09:34:06;85992.00;;;-6.40
69597;BMP180;70000;51.176;-115.568;2024-03-23T09:36:34;85990.60;;;-6.40
69597;BMP180;70000;51.176;-115.568;2024-03-23T09:39:03;85988.80;;;-6.40
69597;BMP180;70000;51.176;-115.568;2024-03-23T09:41:33;85984.60;;;-6.50
69597;BMP180;70000;51.176;-115.568;2024-03-23T09:44:03;85985.60;;;-6.50
69597;BMP180;70000;51.176;-115.568;2024-03-23T09:46:32;85987.60;;;-6.50
69597;BMP180;70000;51.176;-115.568;2024-03-23T09:49:07;85985.00;;;-6.48
69597;BMP180;70000;51.176;-115.568;2024-03-23T09:51:37;85980.80;;;-6.50
69597;BMP180;70000;51.176;-115.568;2024-03-23T09:54:10;85981.20;;;-6.50
69597;BMP180;70000;51.176;-115.568;2024-03-23T09:56:48;85971.20;;;-6.50
69597;BMP180;70000;51.176;-115.568;2024-03-23T09:59:16;85970.60;;;-6.50
69597;BMP180;70000;51.176;-115.568;2024-03-23T10:01:45;85956.80;;;-6.50
69597;BMP180;70000;51.176;-115.568;2024-03-23T10:04:40;85949.00;;;-6.50
69597;BMP180;70000;51.176;-115.568;2024-03-23T10:07:19;85943.40;;;-6.50
69597;BMP180;70000;51.176;-115.568;2024-03-23T10:09:48;85939.00;;;-6.50
69597;BMP180;70000;51.176;-115.568;2024-03-23T10:12:20;85935.20;;;-6.50
69597;BMP180;70000;51.176;-115.568;2024-03-23T10:14:48;85930.00;;;-6.50
69597;BMP180;70000;51.176;-115.568;2024-03-23T10:17:22;85928.60;;;-6.54
69597;BMP180;70000;51.176;-115.568;2024-03-23T10:20:33;85924.00;;;-6.52
69597;BMP180;70000;51.176;-115.568;2024-03-23T10:23:04;85925.00;;;-6.50
69597;BMP180;70000;51.176;-115.568;2024-03-23T10:25:33;85917.20;;;-6.50
69597;BMP180;70000;51.176;-115.568;2024-03-23T10:28:02;85909.60;;;-6.58
69597;BMP180;70000;51.176;-115.568;2024-03-23T10:30:32;85904.80;;;-6.52
69597;BMP180;70000;51.176;-115.568;2024-03-23T10:36:02;85901.20;;;-6.58
69597;BMP180;70000;51.176;-115.568;2024-03-23T10:41:45;85907.00;;;-6.56
69597;BMP180;70000;51.176;-115.568;2024-03-23T10:44:17;85902.20;;;-6.56
69597;BMP180;70000;51.176;-115.568;2024-03-23T10:46:46;85897.60;;;-6.54
69597;BMP180;70000;51.176;-115.568;2024-03-23T10:49:15;85893.20;;;-6.60
69597;BMP180;70000;51.176;-115.568;2024-03-23T10:51:44;85897.80;;;-6.60
69597;BMP180;70000;51.176;-115.568;2024-03-23T10:54:16;85900.20;;;-6.60
69597;BMP180;70000;51.176;-115.568;2024-03-23T10:56:48;85903.00;;;-6.64
69597;BMP180;70000;51.176;-115.568;2024-03-23T10:59:43;85903.40;;;-6.70
69597;BMP180;70000;51.176;-115.568;2024-03-23T11:02:20;85906.40;;;-6.70
69597;BMP180;70000;51.176;-115.568;2024-03-23T11:04:50;85903.20;;;-6.70
69597;BMP180;70000;51.176;-115.568;2024-03-23T11:09:54;85904.20;;;-6.70
69597;BMP180;70000;51.176;-115.568;2024-03-23T11:15:11;85909.00;;;-6.70
69597;BMP180;70000;51.176;-115.568;2024-03-23T11:17:40;85907.60;;;-6.66
69597;BMP180;70000;51.176;-115.568;2024-03-23T11:20:11;85905.40;;;-6.66
69597;BMP180;70000;51.176;-115.568;2024-03-23T11:22:47;85900.40;;;-6.70
69597;BMP180;70000;51.176;-115.568;2024-03-23T11:25:25;85903.40;;;-6.70
69597;BMP180;70000;51.176;-115.568;2024-03-23T11:28:10;85901.40;;;-6.70
69597;BMP180;70000;51.176;-115.568;2024-03-23T11:30:42;85896.40;;;-6.70
69597;BMP180;70000;51.176;-115.568;2024-03-23T11:33:11;85894.40;;;-6.72
69597;BMP180;70000;51.176;-115.568;2024-03-23T11:35:41;85888.00;;;-6.70
69597;BMP180;70000;51.176;-115.568;2024-03-23T11:38:16;85886.40;;;-6.70
69597;BMP180;70000;51.176;-115.568;2024-03-23T11:41:28;85881.40;;;-6.70
69597;BMP180;70000;51.176;-115.568;2024-03-23T11:43:57;85880.20;;;-6.68
69597;BMP180;70000;51.176;-115.568;2024-03-23T11:46:26;85874.00;;;-6.64
69597;BMP180;70000;51.176;-115.568;2024-03-23T11:48:56;85871.80;;;-6.70
69597;BMP180;70000;51.176;-115.568;2024-03-23T11:52:04;85868.20;;;-6.70
69597;BMP180;70000;51.176;-115.568;2024-03-23T11:54:32;85867.80;;;-6.70
69597;BMP180;70000;51.176;-115.568;2024-03-23T11:57:04;85866.00;;;-6.70
69597;BMP180;70000;51.176;-115.568;2024-03-23T12:02:49;85863.00;;;-6.70
69597;BMP180;70000;51.176;-115.568;2024-03-23T12:05:20;85860.80;;;-6.70
69597;BMP180;70000;51.176;-115.568;2024-03-23T12:08:14;85858.20;;;-6.70
69597;BMP180;70000;51.176;-115.568;2024-03-23T12:10:53;85860.80;;;-6.70
69597;BMP180;70000;51.176;-115.568;2024-03-23T12:13:22;85862.20;;;-6.70
69597;BMP180;70000;51.176;-115.568;2024-03-23T12:15:51;85860.80;;;-6.68
69597;BMP180;70000;51.176;-115.568;2024-03-23T12:18:25;85852.60;;;-6.68
69597;BMP180;70000;51.176;-115.568;2024-03-23T12:20:54;85853.80;;;-6.70
69597;BMP180;70000;51.176;-115.568;2024-03-23T12:23:23;85857.00;;;-6.70
69597;BMP180;70000;51.176;-115.568;2024-03-23T12:25:52;85853.60;;;-6.70
69597;BMP180;70000;51.176;-115.568;2024-03-23T12:28:21;85850.60;;;-6.68
69597;BMP180;70000;51.176;-115.568;2024-03-23T12:30:53;85847.60;;;-6.60
69597;BMP180;70000;51.176;-115.568;2024-03-23T12:33:43;85851.20;;;-6.60
69597;BMP180;70000;51.176;-115.568;2024-03-23T12:36:14;85847.40;;;-6.60
69597;BMP180;70000;51.176;-115.568;2024-03-23T12:38:43;85853.60;;;-6.60
69597;BMP180;70000;51.176;-115.568;2024-03-23T12:41:12;85849.00;;;-6.60
69597;BMP180;70000;51.176;-115.568;2024-03-23T12:43:41;85843.20;;;-6.60
69597;BMP180;70000;51.176;-115.568;2024-03-23T12:46:10;85843.00;;;-6.60
69597;BMP180;70000;51.176;-115.568;2024-03-23T12:48:40;85840.80;;;-6.50
69597;BMP180;70000;51.176;-115.568;2024-03-23T12:51:10;85831.20;;;-6.52
69597;BMP180;70000;51.176;-115.568;2024-03-23T12:54:00;85833.00;;;-6.50
69597;BMP180;70000;51.176;-115.568;2024-03-23T12:56:29;85834.20;;;-6.50
69597;BMP180;70000;51.176;-115.568;2024-03-23T12:58:59;85832.20;;;-6.50
69597;BMP180;70000;51.176;-115.568;2024-03-23T13:01:28;85827.80;;;-6.50
69597;BMP180;70000;51.176;-115.568;2024-03-23T13:03:57;85829.60;;;-6.46
69597;BMP180;70000;51.176;-115.568;2024-03-23T13:06:27;85829.80;;;-6.44
69597;BMP180;70000;51.176;-115.568;2024-03-23T13:09:02;85828.00;;;-6.40
69597;BMP180;70000;51.176;-115.568;2024-03-23T13:11:32;85818.40;;;-6.40
69597;BMP180;70000;51.176;-115.568;2024-03-23T13:14:01;85811.40;;;-6.40
69597;BMP180;70000;51.176;-115.568;2024-03-23T13:16:32;85813.20;;;-6.40
69597;BMP180;70000;51.176;-115.568;2024-03-23T13:19:02;85813.80;;;-6.40
69597;BMP180;70000;51.176;-115.568;2024-03-23T13:21:34;85809.80;;;-6.46
69597;BMP180;70000;51.176;-115.568;2024-03-23T13:24:03;85816.00;;;-6.50
69597;BMP180;70000;51.176;-115.568;2024-03-23T13:26:33;85816.40;;;-6.50
69597;BMP180;70000;51.176;-115.568;2024-03-23T13:29:02;85815.00;;;-6.50
69597;BMP180;70000;51.176;-115.568;2024-03-23T13:31:31;85814.40;;;-6.50
69597;BMP180;70000;51.176;-115.568;2024-03-23T13:34:02;85815.40;;;-6.50
69597;BMP180;70000;51.176;-115.568;2024-03-23T13:36:31;85817.60;;;-6.50
69597;BMP180;70000;51.176;-115.568;2024-03-23T13:39:00;85817.80;;;-6.50
69597;BMP180;70000;51.176;-115.568;2024-03-23T13:41:29;85819.60;;;-6.50
69597;BMP180;70000;51.176;-115.568;2024-03-23T13:43:58;85820.60;;;-6.50
69597;BMP180;70000;51.176;-115.568;2024-03-23T13:46:27;85813.80;;;-6.46
69597;BMP180;70000;51.176;-115.568;2024-03-23T13:48:56;85809.20;;;-6.42
69597;BMP180;70000;51.176;-115.568;2024-03-23T13:51:26;85801.80;;;-6.50
69597;BMP180;70000;51.176;-115.568;2024-03-23T13:53:56;85807.40;;;-6.50
69597;BMP180;70000;51.176;-115.568;2024-03-23T13:56:25;85802.20;;;-6.50
69597;BMP180;70000;51.176;-115.568;2024-03-23T13:58:56;85801.60;;;-6.50
69597;BMP180;70000;51.176;-115.568;2024-03-23T14:01:26;85791.60;;;-6.50
69597;BMP180;70000;51.176;-115.568;2024-03-23T14:03:56;85790.00;;;-6.50
69597;BMP180;70000;51.176;-115.568;2024-03-23T14:06:25;85783.60;;;-6.50
69597;BMP180;70000;51.176;-115.568;2024-03-23T14:08:53;85784.40;;;-6.40
69597;BMP180;70000;51.176;-115.568;2024-03-23T14:11:22;85785.40;;;-6.40
69597;BMP180;70000;51.176;-115.568;2024-03-23T14:13:51;85781.80;;;-6.40
69597;BMP180;70000;51.176;-115.568;2024-03-23T14:16:23;85781.40;;;-6.30
69597;BMP180;70000;51.176;-115.568;2024-03-23T14:18:52;85779.40;;;-6.30
69597;BMP180;70000;51.176;-115.568;2024-03-23T14:21:21;85783.60;;;-6.30
69597;BMP180;70000;51.176;-115.568;2024-03-23T14:23:50;85779.80;;;-6.28
69597;BMP180;70000;51.176;-115.568;2024-03-23T14:26:19;85787.40;;;-6.20
69597;BMP180;70000;51.176;-115.568;2024-03-23T14:28:49;85780.40;;;-6.20
69597;BMP180;70000;51.176;-115.568;2024-03-23T14:31:20;85780.40;;;-6.20
69597;BMP180;70000;51.176;-115.568;2024-03-23T14:33:50;85781.20;;;-6.20
69597;BMP180;70000;51.176;-115.568;2024-03-23T14:36:19;85773.20;;;-6.20
69597;BMP180;70000;51.176;-115.568;2024-03-23T14:38:49;85772.00;;;-6.26
69597;BMP180;70000;51.176;-115.568;2024-03-23T14:41:17;85772.00;;;-6.24
69597;BMP180;70000;51.176;-115.568;2024-03-23T14:43:48;85775.40;;;-6.20
69597;BMP180;70000;51.176;-115.568;2024-03-23T14:46:19;85767.60;;;-6.20
69597;BMP180;70000;51.176;-115.568;2024-03-23T14:48:48;85770.80;;;-6.20
69597;BMP180;70000;51.176;-115.568;2024-03-23T14:51:17;85768.40;;;-6.20
69597;BMP180;70000;51.176;-115.568;2024-03-23T14:53:46;85769.00;;;-6.18
69597;BMP180;70000;51.176;-115.568;2024-03-23T14:56:16;85772.40;;;-6.10
69597;BMP180;70000;51.176;-115.568;2024-03-23T14:58:46;85757.60;;;-6.10
69597;BMP180;70000;51.176;-115.568;2024-03-23T15:01:15;85762.20;;;-6.10
69597;BMP180;70000;51.176;-115.568;2024-03-23T15:03:44;85760.00;;;-6.10
69597;BMP180;70000;51.176;-115.568;2024-03-23T15:06:15;85756.00;;;-6.10
69597;BMP180;70000;51.176;-115.568;2024-03-23T15:08:44;85756.00;;;-6.10
69597;BMP180;70000;51.176;-115.568;2024-03-23T15:11:13;85755.20;;;-6.10
69597;BMP180;70000;51.176;-115.568;2024-03-23T15:13:42;85752.80;;;-6.10
69597;BMP180;70000;51.176;-115.568;2024-03-23T15:16:11;85756.20;;;-6.08